sensor_id;sensor_type;location;lat;lon;timestamp;pressure;altitude;pressure_sealevel;temperature;humidity
59391;BME280;53405;57.012;40.984;2024-02-21T00:00:16;101184.22;;;-7.15;81.09
59391;BME280;53405;57.012;40.984;2024-02-21T00:02:44;101154.91;;;-7.01;81.45
59391;BME280;53405;57.012;40.984;2024-02-21T00:05:12;101180.16;;;-6.87;80.26
59391;BME280;53405;57.012;40.984;2024-02-21T00:07:39;101180.66;;;-6.72;80.97
59391;BME280;53405;57.012;40.984;2024-02-21T00:10:07;101179.78;;;-6.72;79.65
59391;BME280;53405;57.012;40.984;2024-02-21T00:12:36;101178.41;;;-6.84;80.14
59391;BME280;53405;57.012;40.984;2024-02-21T00:15:04;101174.81;;;-6.78;80.98
59391;BME280;53405;57.012;40.984;2024-02-21T00:17:34;101171.16;;;-6.68;80.37
59391;BME280;53405;57.012;40.984;2024-02-21T00:20:01;101157.78;;;-6.79;80.54
59391;BME280;53405;57.012;40.984;2024-02-21T00:22:29;101173.13;;;-6.78;80.25
59391;BME280;53405;57.012;40.984;2024-02-21T00:24:58;101153.09;;;-6.63;79.57
59391;BME280;53405;57.012;40.984;2024-02-21T00:27:26;101135.56;;;-6.79;78.21
59391;BME280;53405;57.012;40.984;2024-02-21T00:29:54;101172.63;;;-6.59;78.13
59391;BME280;53405;57.012;40.984;2024-02-21T00:32:21;101169.16;;;-6.57;78.73
59391;BME280;53405;57.012;40.984;2024-02-21T00:34:49;101159.47;;;-6.80;79.11
59391;BME280;53405;57.012;40.984;2024-02-21T00:37:16;101149.28;;;-6.81;78.75
59391;BME280;53405;57.012;40.984;2024-02-21T00:39:44;101153.59;;;-6.83;79.89
59391;BME280;53405;57.012;40.984;2024-02-21T00:42:12;101105.81;;;-7.19;79.23
59391;BME280;53405;57.012;40.984;2024-02-21T00:44:39;101103.72;;;-7.03;78.73
59391;BME280;53405;57.012;40.984;2024-02-21T00:47:07;101092.97;;;-7.17;79.27
59391;BME280;53405;57.012;40.984;2024-02-21T00:49:34;101146.06;;;-6.90;79.38
59391;BME280;53405;57.012;40.984;2024-02-21T00:52:02;101140.69;;;-6.79;80.14
59391;BME280;53405;57.012;40.984;2024-02-21T00:54:30;101143.72;;;-6.64;79.34
59391;BME280;53405;57.012;40.984;2024-02-21T00:57:13;101087.91;;;-7.19;79.67
59391;BME280;53405;57.012;40.984;2024-02-21T00:59:41;101137.09;;;-7.06;80.38
59391;BME280;53405;57.012;40.984;2024-02-21T01:02:09;101135.16;;;-6.96;80.63
59391;BME280;53405;57.012;40.984;2024-02-21T01:04:36;101131.22;;;-6.77;81.02
59391;BME280;53405;57.012;40.984;2024-02-21T01:07:04;101119.66;;;-6.92;80.30
59391;BME280;53405;57.012;40.984;2024-02-21T01:09:31;101126.25;;;-6.83;80.14
59391;BME280;53405;57.012;40.984;2024-02-21T01:11:59;101121.28;;;-6.89;80.26
59391;BME280;53405;57.012;40.984;2024-02-21T01:14:27;101119.63;;;-6.90;79.25
59391;BME280;53405;57.012;40.984;2024-02-21T01:16:55;101122.25;;;-6.93;80.38
59391;BME280;53405;57.012;40.984;2024-02-21T01:19:23;101109.34;;;-6.88;81.09
59391;BME280;53405;57.012;40.984;2024-02-21T01:21:50;101109.19;;;-6.82;81.34
59391;BME280;53405;57.012;40.984;2024-02-21T01:24:18;101117.69;;;-6.82;79.90
59391;BME280;53405;57.012;40.984;2024-02-21T01:26:45;101119.41;;;-6.81;81.12
59391;BME280;53405;57.012;40.984;2024-02-21T01:29:14;101112.63;;;-6.83;80.02
59391;BME280;53405;57.012;40.984;2024-02-21T01:31:41;101108.13;;;-6.75;79.85
59391;BME280;53405;57.012;40.984;2024-02-21T01:34:09;101095.25;;;-7.06;79.97
59391;BME280;53405;57.012;40.984;2024-02-21T01:36:37;101084.00;;;-6.99;81.66
59391;BME280;53405;57.012;40.984;2024-02-21T01:39:04;101094.28;;;-6.68;80.23
59391;BME280;53405;57.012;40.984;2024-02-21T01:41:32;101073.88;;;-6.71;80.35
59391;BME280;53405;57.012;40.984;2024-02-21T01:44:00;101083.09;;;-6.97;81.07
59391;BME280;53405;57.012;40.984;2024-02-21T01:46:28;101079.75;;;-7.00;81.75
59391;BME280;53405;57.012;40.984;2024-02-21T01:48:58;101073.03;;;-6.72;82.19
59391;BME280;53405;57.012;40.984;2024-02-21T01:51:27;101037.22;;;-7.06;81.57
59391;BME280;53405;57.012;40.984;2024-02-21T01:53:56;101084.28;;;-6.77;81.93
59391;BME280;53405;57.012;40.984;2024-02-21T01:56:25;101061.09;;;-7.05;81.46
59391;BME280;53405;57.012;40.984;2024-02-21T01:58:53;101074.53;;;-6.97;81.56
59391;BME280;53405;57.012;40.984;2024-02-21T02:01:21;101064.22;;;-6.94;81.80
59391;BME280;53405;57.012;40.984;2024-02-21T02:03:49;101004.91;;;-7.45;81.49
59391;BME280;53405;57.012;40.984;2024-02-21T02:06:17;101069.50;;;-7.00;82.41
59391;BME280;53405;57.012;40.984;2024-02-21T02:08:44;101072.69;;;-6.92;82.88
59391;BME280;53405;57.012;40.984;2024-02-21T02:11:15;101079.03;;;-7.05;82.50
59391;BME280;53405;57.012;40.984;2024-02-21T02:13:43;101013.44;;;-7.44;82.89
59391;BME280;53405;57.012;40.984;2024-02-21T02:16:11;101077.81;;;-6.92;82.52
59391;BME280;53405;57.012;40.984;2024-02-21T02:18:39;101077.22;;;-7.02;82.43
59391;BME280;53405;57.012;40.984;2024-02-21T02:21:11;101075.56;;;-7.03;83.17
59391;BME280;53405;57.012;40.984;2024-02-21T02:23:41;101077.13;;;-6.99;83.27
59391;BME280;53405;57.012;40.984;2024-02-21T02:26:10;101076.34;;;-7.01;82.41
59391;BME280;53405;57.012;40.984;2024-02-21T02:28:38;101074.69;;;-7.03;82.93
59391;BME280;53405;57.012;40.984;2024-02-21T02:31:05;101073.72;;;-6.98;83.77
59391;BME280;53405;57.012;40.984;2024-02-21T02:33:33;101075.47;;;-7.00;83.36
59391;BME280;53405;57.012;40.984;2024-02-21T02:36:00;101077.03;;;-6.94;82.45
59391;BME280;53405;57.012;40.984;2024-02-21T02:38:29;101066.84;;;-6.97;82.83
59391;BME280;53405;57.012;40.984;2024-02-21T02:40:56;101050.03;;;-7.06;82.47
59391;BME280;53405;57.012;40.984;2024-02-21T02:43:24;101069.50;;;-7.00;83.49
59391;BME280;53405;57.012;40.984;2024-02-21T02:45:51;101063.06;;;-6.82;83.21
59391;BME280;53405;57.012;40.984;2024-02-21T02:48:19;101061.28;;;-6.80;83.67
59391;BME280;53405;57.012;40.984;2024-02-21T02:50:47;101066.34;;;-6.77;81.87
59391;BME280;53405;57.012;40.984;2024-02-21T02:53:16;101052.88;;;-6.84;83.60
59391;BME280;53405;57.012;40.984;2024-02-21T02:55:44;101056.97;;;-6.78;83.20
59391;BME280;53405;57.012;40.984;2024-02-21T02:58:12;101048.41;;;-6.77;82.01
59391;BME280;53405;57.012;40.984;2024-02-21T03:00:39;101032.56;;;-6.92;82.74
59391;BME280;53405;57.012;40.984;2024-02-21T03:03:07;101042.06;;;-6.95;83.36
59391;BME280;53405;57.012;40.984;2024-02-21T03:05:36;101051.91;;;-6.81;82.29
59391;BME280;53405;57.012;40.984;2024-02-21T03:08:04;101049.47;;;-6.86;82.32
59391;BME280;53405;57.012;40.984;2024-02-21T03:10:34;101048.00;;;-6.95;82.18
59391;BME280;53405;57.012;40.984;2024-02-21T03:13:02;101047.84;;;-6.88;82.72
59391;BME280;53405;57.012;40.984;2024-02-21T03:15:31;101036.19;;;-7.00;82.79
59391;BME280;53405;57.012;40.984;2024-02-21T03:17:59;101037.97;;;-7.02;82.66
59391;BME280;53405;57.012;40.984;2024-02-21T03:20:26;101029.38;;;-7.00;82.85
59391;BME280;53405;57.012;40.984;2024-02-21T03:22:54;101038.47;;;-6.90;82.40
59391;BME280;53405;57.012;40.984;2024-02-21T03:25:22;101040.81;;;-6.80;82.35
59391;BME280;53405;57.012;40.984;2024-02-21T03:27:49;101045.84;;;-6.77;82.48
59391;BME280;53405;57.012;40.984;2024-02-21T03:30:17;101051.25;;;-6.88;82.64
59391;BME280;53405;57.012;40.984;2024-02-21T03:32:45;101032.97;;;-6.74;83.92
59391;BME280;53405;57.012;40.984;2024-02-21T03:35:12;101043.91;;;-6.69;81.86
59391;BME280;53405;57.012;40.984;2024-02-21T03:37:40;101029.59;;;-6.76;82.13
59391;BME280;53405;57.012;40.984;2024-02-21T03:40:08;101040.75;;;-6.79;82.83
59391;BME280;53405;57.012;40.984;2024-02-21T03:42:37;100997.81;;;-7.02;82.38
59391;BME280;53405;57.012;40.984;2024-02-21T03:45:05;101042.84;;;-6.60;82.74
59391;BME280;53405;57.012;40.984;2024-02-21T03:47:33;101044.06;;;-6.75;83.15
59391;BME280;53405;57.012;40.984;2024-02-21T03:50:01;101041.13;;;-6.61;83.51
59391;BME280;53405;57.012;40.984;2024-02-21T03:52:29;101039.16;;;-6.83;82.11
59391;BME280;53405;57.012;40.984;2024-02-21T03:54:56;101029.88;;;-6.87;83.30
59391;BME280;53405;57.012;40.984;2024-02-21T03:57:24;101021.19;;;-6.81;82.07
59391;BME280;53405;57.012;40.984;2024-02-21T03:59:52;101027.72;;;-7.02;83.33
59391;BME280;53405;57.012;40.984;2024-02-21T04:02:19;101054.44;;;-6.80;83.82
59391;BME280;53405;57.012;40.984;2024-02-21T04:04:48;101035.41;;;-6.40;81.79
59391;BME280;53405;57.012;40.984;2024-02-21T04:07:16;101052.00;;;-6.53;81.98
59391;BME280;53405;57.012;40.984;2024-02-21T04:09:44;101049.97;;;-6.42;83.23
59391;BME280;53405;57.012;40.984;2024-02-21T04:12:11;101043.00;;;-6.66;82.32
59391;BME280;53405;57.012;40.984;2024-02-21T04:14:39;101047.13;;;-6.62;82.28
59391;BME280;53405;57.012;40.984;2024-02-21T04:17:10;101065.13;;;-6.64;82.07
59391;BME280;53405;57.012;40.984;2024-02-21T04:19:38;101058.78;;;-6.50;82.07
59391;BME280;53405;57.012;40.984;2024-02-21T04:22:06;101062.00;;;-6.44;82.52
59391;BME280;53405;57.012;40.984;2024-02-21T04:24:33;101061.63;;;-6.61;82.80
59391;BME280;53405;57.012;40.984;2024-02-21T04:27:01;101050.81;;;-6.71;82.15
59391;BME280;53405;57.012;40.984;2024-02-21T04:29:28;101061.84;;;-6.69;82.91
59391;BME280;53405;57.012;40.984;2024-02-21T04:31:56;101057.78;;;-6.76;82.00
59391;BME280;53405;57.012;40.984;2024-02-21T04:34:24;101073.50;;;-6.90;82.41
59391;BME280;53405;57.012;40.984;2024-02-21T04:36:52;101065.56;;;-7.14;82.90
59391;BME280;53405;57.012;40.984;2024-02-21T04:39:19;101067.00;;;-7.03;83.23
59391;BME280;53405;57.012;40.984;2024-02-21T04:41:47;101055.41;;;-7.17;83.85
59391;BME280;53405;57.012;40.984;2024-02-21T04:44:15;101071.50;;;-7.12;84.08
59391;BME280;53405;57.012;40.984;2024-02-21T04:46:43;101069.13;;;-7.19;84.09
59391;BME280;53405;57.012;40.984;2024-02-21T04:49:11;101073.75;;;-7.34;83.84
59391;BME280;53405;57.012;40.984;2024-02-21T04:51:41;101068.59;;;-7.32;84.32
59391;BME280;53405;57.012;40.984;2024-02-21T04:54:09;101028.97;;;-7.52;84.27
59391;BME280;53405;57.012;40.984;2024-02-21T04:56:36;101074.53;;;-7.32;84.59
59391;BME280;53405;57.012;40.984;2024-02-21T04:59:04;101071.88;;;-7.27;84.37
59391;BME280;53405;57.012;40.984;2024-02-21T05:01:31;101075.91;;;-7.17;84.60
59391;BME280;53405;57.012;40.984;2024-02-21T05:03:59;101028.19;;;-7.55;83.86
59391;BME280;53405;57.012;40.984;2024-02-21T05:06:27;100999.97;;;-7.88;84.63
59391;BME280;53405;57.012;40.984;2024-02-21T05:08:54;101054.84;;;-7.64;85.27
59391;BME280;53405;57.012;40.984;2024-02-21T05:11:22;101021.69;;;-7.69;86.06
59391;BME280;53405;57.012;40.984;2024-02-21T05:13:50;101068.81;;;-7.41;86.78
59391;BME280;53405;57.012;40.984;2024-02-21T05:16:18;101056.38;;;-7.57;86.23
59391;BME280;53405;57.012;40.984;2024-02-21T05:18:47;101026.19;;;-7.78;86.90
59391;BME280;53405;57.012;40.984;2024-02-21T05:21:14;101075.66;;;-7.42;86.77
59391;BME280;53405;57.012;40.984;2024-02-21T05:23:42;101051.19;;;-7.54;88.05
59391;BME280;53405;57.012;40.984;2024-02-21T05:26:09;101033.44;;;-7.62;86.21
59391;BME280;53405;57.012;40.984;2024-02-21T05:28:37;101073.72;;;-7.32;86.71
59391;BME280;53405;57.012;40.984;2024-02-21T05:31:05;101055.94;;;-7.38;86.10
59391;BME280;53405;57.012;40.984;2024-02-21T05:33:33;101070.38;;;-7.36;86.55
59391;BME280;53405;57.012;40.984;2024-02-21T05:36:00;101058.56;;;-7.41;87.39
59391;BME280;53405;57.012;40.984;2024-02-21T05:38:28;101076.25;;;-7.32;86.12
59391;BME280;53405;57.012;40.984;2024-02-21T05:40:55;101063.09;;;-7.17;85.94
59391;BME280;53405;57.012;40.984;2024-02-21T05:43:24;101071.88;;;-7.27;85.74
59391;BME280;53405;57.012;40.984;2024-02-21T05:45:52;101073.81;;;-7.37;85.22
59391;BME280;53405;57.012;40.984;2024-02-21T05:48:21;101072.41;;;-7.49;85.42
59391;BME280;53405;57.012;40.984;2024-02-21T05:50:49;101030.50;;;-7.45;84.23
59391;BME280;53405;57.012;40.984;2024-02-21T05:53:17;101062.88;;;-7.43;84.54
59391;BME280;53405;57.012;40.984;2024-02-21T05:55:44;101061.59;;;-7.26;85.10
59391;BME280;53405;57.012;40.984;2024-02-21T05:58:12;101063.81;;;-7.12;84.71
59391;BME280;53405;57.012;40.984;2024-02-21T06:00:41;101052.28;;;-7.28;84.60
59391;BME280;53405;57.012;40.984;2024-02-21T06:03:08;101078.34;;;-7.12;84.72
59391;BME280;53405;57.012;40.984;2024-02-21T06:05:37;101074.34;;;-6.90;84.04
59391;BME280;53405;57.012;40.984;2024-02-21T06:08:06;101073.59;;;-6.93;84.65
59391;BME280;53405;57.012;40.984;2024-02-21T06:10:34;101047.75;;;-6.84;84.40
59391;BME280;53405;57.012;40.984;2024-02-21T06:13:02;101067.81;;;-6.68;84.01
59391;BME280;53405;57.012;40.984;2024-02-21T06:15:29;101080.53;;;-6.65;83.47
59391;BME280;53405;57.012;40.984;2024-02-21T06:17:58;101075.63;;;-6.73;82.67
59391;BME280;53405;57.012;40.984;2024-02-21T06:20:26;101064.38;;;-6.67;82.73
59391;BME280;53405;57.012;40.984;2024-02-21T06:22:54;101037.94;;;-6.69;82.69
59391;BME280;53405;57.012;40.984;2024-02-21T06:25:22;101087.06;;;-6.54;82.94
59391;BME280;53405;57.012;40.984;2024-02-21T06:27:49;101089.25;;;-6.40;82.35
59391;BME280;53405;57.012;40.984;2024-02-21T06:30:17;101094.31;;;-6.37;82.40
59391;BME280;53405;57.012;40.984;2024-02-21T06:32:45;101067.38;;;-6.53;82.47
59391;BME280;53405;57.012;40.984;2024-02-21T06:35:13;101084.63;;;-6.27;81.99
59391;BME280;53405;57.012;40.984;2024-02-21T06:37:41;101084.09;;;-6.08;80.10
59391;BME280;53405;57.012;40.984;2024-02-21T06:40:09;101074.56;;;-6.34;81.24
59391;BME280;53405;57.012;40.984;2024-02-21T06:42:36;101058.16;;;-6.27;81.29
59391;BME280;53405;57.012;40.984;2024-02-21T06:45:04;101076.88;;;-6.25;81.61
59391;BME280;53405;57.012;40.984;2024-02-21T06:47:33;101081.50;;;-6.07;81.07
59391;BME280;53405;57.012;40.984;2024-02-21T06:50:01;101044.78;;;-6.39;80.89
59391;BME280;53405;57.012;40.984;2024-02-21T06:52:30;101073.63;;;-6.01;81.31
59391;BME280;53405;57.012;40.984;2024-02-21T06:54:58;101087.09;;;-5.95;79.76
59391;BME280;53405;57.012;40.984;2024-02-21T06:57:26;101022.19;;;-6.56;80.20
59391;BME280;53405;57.012;40.984;2024-02-21T06:59:53;101090.47;;;-5.93;80.70
59391;BME280;53405;57.012;40.984;2024-02-21T07:02:21;101037.06;;;-6.09;79.89
59391;BME280;53405;57.012;40.984;2024-02-21T07:04:49;101091.84;;;-5.82;79.78
59391;BME280;53405;57.012;40.984;2024-02-21T07:07:17;101092.34;;;-5.98;79.50
59391;BME280;53405;57.012;40.984;2024-02-21T07:09:45;101041.06;;;-5.98;81.45
59391;BME280;53405;57.012;40.984;2024-02-21T07:12:15;101088.72;;;-5.65;80.48
59391;BME280;53405;57.012;40.984;2024-02-21T07:14:44;101080.59;;;-5.51;80.10
59391;BME280;53405;57.012;40.984;2024-02-21T07:17:12;101079.81;;;-5.53;80.64
59391;BME280;53405;57.012;40.984;2024-02-21T07:19:40;101047.22;;;-5.51;79.66
59391;BME280;53405;57.012;40.984;2024-02-21T07:22:08;101075.31;;;-5.46;79.68
59391;BME280;53405;57.012;40.984;2024-02-21T07:24:37;101068.50;;;-5.20;80.14
59391;BME280;53405;57.012;40.984;2024-02-21T07:27:05;101066.03;;;-5.23;79.17
59391;BME280;53405;57.012;40.984;2024-02-21T07:29:32;101087.41;;;-4.96;78.65
59391;BME280;53405;57.012;40.984;2024-02-21T07:32:01;101090.81;;;-4.70;77.80
59391;BME280;53405;57.012;40.984;2024-02-21T07:34:29;101088.56;;;-4.80;77.77
59391;BME280;53405;57.012;40.984;2024-02-21T07:36:57;101079.53;;;-4.66;77.86
59391;BME280;53405;57.012;40.984;2024-02-21T07:39:25;101073.03;;;-4.77;75.74
59391;BME280;53405;57.012;40.984;2024-02-21T07:41:52;101101.34;;;-4.78;76.70
59391;BME280;53405;57.012;40.984;2024-02-21T07:44:20;101091.28;;;-4.84;76.99
59391;BME280;53405;57.012;40.984;2024-02-21T07:46:48;101091.06;;;-4.78;77.53
59391;BME280;53405;57.012;40.984;2024-02-21T07:49:15;101102.91;;;-4.73;77.00
59391;BME280;53405;57.012;40.984;2024-02-21T07:51:43;101099.97;;;-4.62;76.46
59391;BME280;53405;57.012;40.984;2024-02-21T07:54:11;101096.31;;;-4.56;76.56
59391;BME280;53405;57.012;40.984;2024-02-21T07:56:42;101055.44;;;-4.64;76.58
59391;BME280;53405;57.012;40.984;2024-02-21T07:59:10;101094.09;;;-4.42;75.46
59391;BME280;53405;57.012;40.984;2024-02-21T08:01:38;101086.66;;;-4.49;76.23
59391;BME280;53405;57.012;40.984;2024-02-21T08:04:06;101101.88;;;-4.20;75.74
59391;BME280;53405;57.012;40.984;2024-02-21T08:06:34;101096.63;;;-4.17;75.54
59391;BME280;53405;57.012;40.984;2024-02-21T08:09:02;101077.59;;;-4.12;75.30
59391;BME280;53405;57.012;40.984;2024-02-21T08:11:30;101093.38;;;-3.98;75.28
59391;BME280;53405;57.012;40.984;2024-02-21T08:13:57;101095.06;;;-3.97;74.86
59391;BME280;53405;57.012;40.984;2024-02-21T08:16:26;101083.81;;;-4.18;76.37
59391;BME280;53405;57.012;40.984;2024-02-21T08:18:54;101100.81;;;-3.90;75.01
59391;BME280;53405;57.012;40.984;2024-02-21T08:21:21;101089.38;;;-4.07;74.70
59391;BME280;53405;57.012;40.984;2024-02-21T08:23:49;101094.38;;;-4.02;74.67
59391;BME280;53405;57.012;40.984;2024-02-21T08:26:18;101084.00;;;-4.01;74.88
59391;BME280;53405;57.012;40.984;2024-02-21T08:28:46;101102.97;;;-3.79;75.64
59391;BME280;53405;57.012;40.984;2024-02-21T08:31:20;101106.84;;;-3.69;73.31
59391;BME280;53405;57.012;40.984;2024-02-21T08:33:48;101083.63;;;-3.90;75.16
59391;BME280;53405;57.012;40.984;2024-02-21T08:36:19;101079.75;;;-3.78;75.33
59391;BME280;53405;57.012;40.984;2024-02-21T08:38:47;101094.94;;;-3.94;74.77
59391;BME280;53405;57.012;40.984;2024-02-21T08:41:14;101083.72;;;-3.93;75.88
59391;BME280;53405;57.012;40.984;2024-02-21T08:43:42;101078.22;;;-3.84;76.66
59391;BME280;53405;57.012;40.984;2024-02-21T08:46:09;101070.81;;;-4.15;74.80
59391;BME280;53405;57.012;40.984;2024-02-21T08:48:37;101082.59;;;-4.08;74.87
59391;BME280;53405;57.012;40.984;2024-02-21T08:51:05;101090.72;;;-3.96;75.60
59391;BME280;53405;57.012;40.984;2024-02-21T08:53:33;101089.69;;;-3.47;74.66
59391;BME280;53405;57.012;40.984;2024-02-21T08:56:00;101023.06;;;-3.98;73.60
59391;BME280;53405;57.012;40.984;2024-02-21T08:58:29;101087.00;;;-3.43;73.54
59391;BME280;53405;57.012;40.984;2024-02-21T09:00:57;101088.34;;;-3.57;72.73
59391;BME280;53405;57.012;40.984;2024-02-21T09:03:24;101093.44;;;-3.77;74.68
59391;BME280;53405;57.012;40.984;2024-02-21T09:05:53;101085.59;;;-3.74;75.14
59391;BME280;53405;57.012;40.984;2024-02-21T09:08:20;101060.88;;;-3.78;75.19
59391;BME280;53405;57.012;40.984;2024-02-21T09:10:48;101084.97;;;-3.15;73.81
59391;BME280;53405;57.012;40.984;2024-02-21T09:13:16;101085.84;;;-3.16;74.51
59391;BME280;53405;57.012;40.984;2024-02-21T09:15:43;101075.47;;;-3.14;73.55
59391;BME280;53405;57.012;40.984;2024-02-21T09:18:11;101081.44;;;-3.12;71.83
59391;BME280;53405;57.012;40.984;2024-02-21T09:20:39;101075.97;;;-3.27;73.04
59391;BME280;53405;57.012;40.984;2024-02-21T09:23:07;101059.94;;;-3.33;73.21
59391;BME280;53405;57.012;40.984;2024-02-21T09:25:35;101068.47;;;-3.11;71.89
59391;BME280;53405;57.012;40.984;2024-02-21T09:28:03;101077.50;;;-3.00;72.86
59391;BME280;53405;57.012;40.984;2024-02-21T09:30:33;101086.91;;;-2.79;72.71
59391;BME280;53405;57.012;40.984;2024-02-21T09:33:01;101083.94;;;-2.69;71.84
59391;BME280;53405;57.012;40.984;2024-02-21T09:35:30;101067.94;;;-2.78;72.34
59391;BME280;53405;57.012;40.984;2024-02-21T09:38:01;101080.94;;;-2.60;70.57
59391;BME280;53405;57.012;40.984;2024-02-21T09:40:30;101020.53;;;-2.94;70.63
59391;BME280;53405;57.012;40.984;2024-02-21T09:43:03;101044.50;;;-2.92;71.77
59391;BME280;53405;57.012;40.984;2024-02-21T09:45:34;101066.94;;;-2.55;69.36
59391;BME280;53405;57.012;40.984;2024-02-21T09:50:43;101070.19;;;-2.70;70.87
59391;BME280;53405;57.012;40.984;2024-02-21T09:53:14;100978.88;;;-3.24;69.65
59391;BME280;53405;57.012;40.984;2024-02-21T09:55:43;101070.56;;;-2.59;70.19
59391;BME280;53405;57.012;40.984;2024-02-21T09:58:11;101066.91;;;-2.74;69.57
59391;BME280;53405;57.012;40.984;2024-02-21T10:00:39;101061.63;;;-2.70;70.10
59391;BME280;53405;57.012;40.984;2024-02-21T10:03:07;101046.03;;;-2.67;69.75
59391;BME280;53405;57.012;40.984;2024-02-21T10:05:37;101052.56;;;-2.40;68.51
59391;BME280;53405;57.012;40.984;2024-02-21T10:08:06;101024.59;;;-2.88;69.84
59391;BME280;53405;57.012;40.984;2024-02-21T10:10:44;101057.06;;;-2.45;68.93
59391;BME280;53405;57.012;40.984;2024-02-21T10:13:24;101014.34;;;-2.31;69.15
59391;BME280;53405;57.012;40.984;2024-02-21T10:16:07;101056.50;;;-2.51;68.62
59391;BME280;53405;57.012;40.984;2024-02-21T10:18:35;101042.63;;;-2.49;69.92
59391;BME280;53405;57.012;40.984;2024-02-21T10:21:07;101044.44;;;-2.51;69.39
59391;BME280;53405;57.012;40.984;2024-02-21T10:26:14;101012.09;;;-2.20;69.63
59391;BME280;53405;57.012;40.984;2024-02-21T10:28:42;101058.06;;;-2.28;69.21
59391;BME280;53405;57.012;40.984;2024-02-21T10:31:21;101057.38;;;-1.94;70.29
59391;BME280;53405;57.012;40.984;2024-02-21T10:34:00;101044.56;;;-1.78;68.13
59391;BME280;53405;57.012;40.984;2024-02-21T10:36:33;101062.09;;;-2.04;68.02
59391;BME280;53405;57.012;40.984;2024-02-21T10:39:01;101054.25;;;-1.83;68.45
59391;BME280;53405;57.012;40.984;2024-02-21T10:41:31;101057.69;;;-1.83;66.91
59391;BME280;53405;57.012;40.984;2024-02-21T10:44:00;101039.78;;;-2.05;68.95
59391;BME280;53405;57.012;40.984;2024-02-21T10:46:32;101053.63;;;-1.88;67.11
59391;BME280;53405;57.012;40.984;2024-02-21T10:49:12;101059.44;;;-2.02;67.61
59391;BME280;53405;57.012;40.984;2024-02-21T10:51:43;101055.28;;;-2.05;68.66
59391;BME280;53405;57.012;40.984;2024-02-21T10:56:56;101055.69;;;-2.33;69.75
59391;BME280;53405;57.012;40.984;2024-02-21T10:59:25;101033.72;;;-2.42;70.01
59391;BME280;53405;57.012;40.984;2024-02-21T11:01:54;101058.34;;;-2.15;68.09
59391;BME280;53405;57.012;40.984;2024-02-21T11:04:26;101060.16;;;-2.17;69.80
59391;BME280;53405;57.012;40.984;2024-02-21T11:06:55;100986.78;;;-2.69;69.24
59391;BME280;53405;57.012;40.984;2024-02-21T11:09:32;101034.84;;;-2.28;70.53
59391;BME280;53405;57.012;40.984;2024-02-21T11:12:05;101027.38;;;-2.34;68.61
59391;BME280;53405;57.012;40.984;2024-02-21T11:14:33;101027.59;;;-2.39;69.68
59391;BME280;53405;57.012;40.984;2024-02-21T11:17:18;101040.97;;;-2.31;68.81
59391;BME280;53405;57.012;40.984;2024-02-21T11:19:46;101054.06;;;-2.36;69.19
59391;BME280;53405;57.012;40.984;2024-02-21T11:22:19;101039.84;;;-2.44;69.18
59391;BME280;53405;57.012;40.984;2024-02-21T11:24:50;101043.88;;;-2.58;69.32
59391;BME280;53405;57.012;40.984;2024-02-21T11:27:22;101027.06;;;-2.66;70.71
59391;BME280;53405;57.012;40.984;2024-02-21T11:29:56;101043.25;;;-2.44;70.30
59391;BME280;53405;57.012;40.984;2024-02-21T11:32:25;101031.25;;;-2.45;68.87
59391;BME280;53405;57.012;40.984;2024-02-21T11:35:03;101029.25;;;-2.78;70.38
59391;BME280;53405;57.012;40.984;2024-02-21T11:37:36;101046.31;;;-2.55;70.95
59391;BME280;53405;57.012;40.984;2024-02-21T11:40:08;101042.06;;;-2.56;71.21
59391;BME280;53405;57.012;40.984;2024-02-21T11:42:39;101046.78;;;-2.65;70.18
59391;BME280;53405;57.012;40.984;2024-02-21T11:45:08;101043.09;;;-2.60;70.53
59391;BME280;53405;57.012;40.984;2024-02-21T11:47:37;101037.34;;;-2.46;69.98
59391;BME280;53405;57.012;40.984;2024-02-21T11:50:10;101028.41;;;-2.58;71.54
59391;BME280;53405;57.012;40.984;2024-02-21T11:52:39;101048.06;;;-2.55;70.15
59391;BME280;53405;57.012;40.984;2024-02-21T11:55:07;101010.94;;;-2.72;71.46
59391;BME280;53405;57.012;40.984;2024-02-21T11:57:38;101045.34;;;-2.52;69.78
59391;BME280;53405;57.012;40.984;2024-02-21T12:00:16;101007.50;;;-2.91;69.43
59391;BME280;53405;57.012;40.984;2024-02-21T12:02:45;101030.88;;;-2.75;70.85
59391;BME280;53405;57.012;40.984;2024-02-21T12:05:14;101051.63;;;-2.39;71.42
59391;BME280;53405;57.012;40.984;2024-02-21T12:07:43;101042.19;;;-2.59;70.44
59391;BME280;53405;57.012;40.984;2024-02-21T12:10:12;101036.88;;;-2.75;70.85
59391;BME280;53405;57.012;40.984;2024-02-21T12:12:40;101044.03;;;-2.81;71.65
59391;BME280;53405;57.012;40.984;2024-02-21T12:15:08;101005.81;;;-2.92;71.75
59391;BME280;53405;57.012;40.984;2024-02-21T12:17:37;101036.59;;;-2.68;71.42
59391;BME280;53405;57.012;40.984;2024-02-21T12:20:06;100985.75;;;-2.85;71.10
59391;BME280;53405;57.012;40.984;2024-02-21T12:22:41;101037.53;;;-2.50;69.67
59391;BME280;53405;57.012;40.984;2024-02-21T12:25:16;101026.44;;;-2.52;69.08
59391;BME280;53405;57.012;40.984;2024-02-21T12:27:48;101021.69;;;-2.62;69.24
59391;BME280;53405;57.012;40.984;2024-02-21T12:30:17;101029.28;;;-2.59;69.40
59391;BME280;53405;57.012;40.984;2024-02-21T12:32:46;100983.63;;;-2.76;68.42
59391;BME280;53405;57.012;40.984;2024-02-21T12:35:15;100977.94;;;-3.03;69.78
59391;BME280;53405;57.012;40.984;2024-02-21T12:37:45;101031.03;;;-2.59;69.90
59391;BME280;53405;57.012;40.984;2024-02-21T12:40:12;101001.16;;;-2.84;69.32
59391;BME280;53405;57.012;40.984;2024-02-21T12:42:42;101027.72;;;-2.42;68.61
59391;BME280;53405;57.012;40.984;2024-02-21T12:45:10;101024.44;;;-2.65;70.55
59391;BME280;53405;57.012;40.984;2024-02-21T12:47:37;101018.78;;;-2.54;68.28
59391;BME280;53405;57.012;40.984;2024-02-21T12:50:06;101035.09;;;-2.53;69.25
59391;BME280;53405;57.012;40.984;2024-02-21T12:52:35;101039.84;;;-2.84;69.50
59391;BME280;53405;57.012;40.984;2024-02-21T12:55:03;101024.06;;;-3.17;71.07